sensor_id;sensor_type;location;lat;lon;timestamp;P1;durP1;ratioP1;P2;durP2;ratioP2
17953;SDS011;9102;53.548;9.926;2023-04-19T00:01:01;8.73;;;4.35;;
17953;SDS011;9102;53.548;9.926;2023-04-19T00:03:28;8.55;;;4.88;;
17953;SDS011;9102;53.548;9.926;2023-04-19T00:05:55;10.98;;;5.28;;
17953;SDS011;9102;53.548;9.926;2023-04-19T00:08:23;12.13;;;5.60;;
17953;SDS011;9102;53.548;9.926;2023-04-19T00:10:50;13.40;;;5.68;;
17953;SDS011;9102;53.548;9.926;2023-04-19T00:13:18;11.68;;;5.18;;
17953;SDS011;9102;53.548;9.926;2023-04-19T00:15:45;10.45;;;5.47;;
17953;SDS011;9102;53.548;9.926;2023-04-19T00:18:13;12.98;;;6.15;;
17953;SDS011;9102;53.548;9.926;2023-04-19T00:20:39;12.55;;;6.07;;
17953;SDS011;9102;53.548;9.926;2023-04-19T00:23:06;10.35;;;5.65;;
17953;SDS011;9102;53.548;9.926;2023-04-19T00:25:33;13.32;;;5.82;;
17953;SDS011;9102;53.548;9.926;2023-04-19T00:28:00;11.15;;;5.68;;
17953;SDS011;9102;53.548;9.926;2023-04-19T00:30:29;12.25;;;6.03;;
17953;SDS011;9102;53.548;9.926;2023-04-19T00:32:56;11.40;;;5.72;;
17953;SDS011;9102;53.548;9.926;2023-04-19T00:35:22;12.13;;;5.50;;
17953;SDS011;9102;53.548;9.926;2023-04-19T00:37:49;12.05;;;5.30;;
17953;SDS011;9102;53.548;9.926;2023-04-19T00:40:16;9.68;;;5.55;;
17953;SDS011;9102;53.548;9.926;2023-04-19T00:42:43;12.32;;;5.63;;
17953;SDS011;9102;53.548;9.926;2023-04-19T00:45:10;12.20;;;5.10;;
17953;SDS011;9102;53.548;9.926;2023-04-19T00:47:38;10.05;;;5.13;;
17953;SDS011;9102;53.548;9.926;2023-04-19T00:50:06;10.05;;;5.20;;
17953;SDS011;9102;53.548;9.926;2023-04-19T00:52:34;11.38;;;5.72;;
17953;SDS011;9102;53.548;9.926;2023-04-19T00:55:01;11.07;;;5.78;;
17953;SDS011;9102;53.548;9.926;2023-04-19T00:57:29;13.60;;;5.55;;
17953;SDS011;9102;53.548;9.926;2023-04-19T00:59:56;15.45;;;5.78;;
17953;SDS011;9102;53.548;9.926;2023-04-19T01:02:23;14.82;;;5.35;;
17953;SDS011;9102;53.548;9.926;2023-04-19T01:04:53;10.65;;;4.78;;
17953;SDS011;9102;53.548;9.926;2023-04-19T01:07:20;13.43;;;5.40;;
17953;SDS011;9102;53.548;9.926;2023-04-19T01:09:47;7.43;;;4.45;;
17953;SDS011;9102;53.548;9.926;2023-04-19T01:12:14;9.07;;;5.10;;
17953;SDS011;9102;53.548;9.926;2023-04-19T01:14:41;10.57;;;4.70;;
17953;SDS011;9102;53.548;9.926;2023-04-19T01:17:08;9.60;;;4.72;;
17953;SDS011;9102;53.548;9.926;2023-04-19T01:19:35;11.52;;;4.68;;
17953;SDS011;9102;53.548;9.926;2023-04-19T01:22:04;12.35;;;4.82;;
17953;SDS011;9102;53.548;9.926;2023-04-19T01:24:32;9.68;;;4.82;;
17953;SDS011;9102;53.548;9.926;2023-04-19T01:26:59;11.30;;;4.75;;
17953;SDS011;9102;53.548;9.926;2023-04-19T01:29:26;12.80;;;5.00;;
17953;SDS011;9102;53.548;9.926;2023-04-19T01:31:53;10.35;;;4.43;;
17953;SDS011;9102;53.548;9.926;2023-04-19T01:34:19;6.10;;;4.22;;
17953;SDS011;9102;53.548;9.926;2023-04-19T01:36:48;11.65;;;5.00;;
17953;SDS011;9102;53.548;9.926;2023-04-19T01:39:15;10.73;;;6.10;;
17953;SDS011;9102;53.548;9.926;2023-04-19T01:41:43;8.38;;;4.30;;
17953;SDS011;9102;53.548;9.926;2023-04-19T01:44:10;6.22;;;3.97;;
17953;SDS011;9102;53.548;9.926;2023-04-19T01:46:37;7.20;;;3.95;;
17953;SDS011;9102;53.548;9.926;2023-04-19T01:49:06;6.80;;;3.47;;
17953;SDS011;9102;53.548;9.926;2023-04-19T01:51:33;8.95;;;3.78;;
17953;SDS011;9102;53.548;9.926;2023-04-19T01:54:00;6.85;;;3.47;;
17953;SDS011;9102;53.548;9.926;2023-04-19T01:56:27;6.93;;;3.38;;
17953;SDS011;9102;53.548;9.926;2023-04-19T01:58:55;6.45;;;3.60;;
17953;SDS011;9102;53.548;9.926;2023-04-19T02:01:22;6.25;;;3.33;;
17953;SDS011;9102;53.548;9.926;2023-04-19T02:03:49;6.53;;;3.50;;
17953;SDS011;9102;53.548;9.926;2023-04-19T02:06:15;8.43;;;3.97;;
17953;SDS011;9102;53.548;9.926;2023-04-19T02:08:42;8.90;;;3.50;;
17953;SDS011;9102;53.548;9.926;2023-04-19T02:11:09;8.15;;;3.50;;
17953;SDS011;9102;53.548;9.926;2023-04-19T02:13:38;10.38;;;3.65;;
17953;SDS011;9102;53.548;9.926;2023-04-19T02:16:07;7.25;;;3.70;;
17953;SDS011;9102;53.548;9.926;2023-04-19T02:18:34;7.30;;;3.67;;
17953;SDS011;9102;53.548;9.926;2023-04-19T02:21:03;6.68;;;3.30;;
17953;SDS011;9102;53.548;9.926;2023-04-19T02:23:31;9.88;;;4.22;;
17953;SDS011;9102;53.548;9.926;2023-04-19T02:25:58;7.57;;;3.85;;
17953;SDS011;9102;53.548;9.926;2023-04-19T02:28:27;9.00;;;4.30;;
17953;SDS011;9102;53.548;9.926;2023-04-19T02:30:54;10.70;;;3.92;;
17953;SDS011;9102;53.548;9.926;2023-04-19T02:33:22;8.10;;;3.95;;
17953;SDS011;9102;53.548;9.926;2023-04-19T02:35:50;10.95;;;3.83;;
17953;SDS011;9102;53.548;9.926;2023-04-19T02:38:17;10.10;;;3.97;;
17953;SDS011;9102;53.548;9.926;2023-04-19T02:40:44;7.05;;;3.78;;
17953;SDS011;9102;53.548;9.926;2023-04-19T02:43:11;8.18;;;3.65;;
17953;SDS011;9102;53.548;9.926;2023-04-19T02:45:38;8.48;;;3.70;;
17953;SDS011;9102;53.548;9.926;2023-04-19T02:48:05;8.20;;;4.00;;
17953;SDS011;9102;53.548;9.926;2023-04-19T02:50:35;9.82;;;3.72;;
17953;SDS011;9102;53.548;9.926;2023-04-19T02:53:02;8.45;;;4.15;;
17953;SDS011;9102;53.548;9.926;2023-04-19T02:55:29;11.52;;;4.10;;
17953;SDS011;9102;53.548;9.926;2023-04-19T02:57:56;8.60;;;3.80;;
17953;SDS011;9102;53.548;9.926;2023-04-19T03:00:22;8.57;;;3.53;;
17953;SDS011;9102;53.548;9.926;2023-04-19T03:02:49;8.15;;;3.88;;
17953;SDS011;9102;53.548;9.926;2023-04-19T03:05:16;16.33;;;4.03;;
17953;SDS011;9102;53.548;9.926;2023-04-19T03:07:44;11.70;;;4.32;;
17953;SDS011;9102;53.548;9.926;2023-04-19T03:10:11;14.02;;;3.92;;
17953;SDS011;9102;53.548;9.926;2023-04-19T03:12:38;7.70;;;3.75;;
17953;SDS011;9102;53.548;9.926;2023-04-19T03:15:06;9.27;;;4.00;;
17953;SDS011;9102;53.548;9.926;2023-04-19T03:17:33;12.35;;;4.28;;
17953;SDS011;9102;53.548;9.926;2023-04-19T03:20:01;10.60;;;4.40;;
17953;SDS011;9102;53.548;9.926;2023-04-19T03:22:33;8.45;;;3.58;;
17953;SDS011;9102;53.548;9.926;2023-04-19T03:25:01;9.73;;;3.60;;
17953;SDS011;9102;53.548;9.926;2023-04-19T03:27:28;9.50;;;4.22;;
17953;SDS011;9102;53.548;9.926;2023-04-19T03:29:55;9.77;;;3.45;;
17953;SDS011;9102;53.548;9.926;2023-04-19T03:32:22;10.88;;;3.60;;
17953;SDS011;9102;53.548;9.926;2023-04-19T03:34:48;7.35;;;3.40;;
17953;SDS011;9102;53.548;9.926;2023-04-19T03:37:15;11.27;;;3.85;;
17953;SDS011;9102;53.548;9.926;2023-04-19T03:39:42;8.55;;;3.67;;
17953;SDS011;9102;53.548;9.926;2023-04-19T03:42:10;10.88;;;3.92;;
17953;SDS011;9102;53.548;9.926;2023-04-19T03:44:37;7.35;;;3.33;;
17953;SDS011;9102;53.548;9.926;2023-04-19T03:47:04;8.32;;;3.75;;
17953;SDS011;9102;53.548;9.926;2023-04-19T03:49:31;9.73;;;3.88;;
17953;SDS011;9102;53.548;9.926;2023-04-19T03:51:57;6.85;;;3.58;;
17953;SDS011;9102;53.548;9.926;2023-04-19T03:54:24;11.23;;;3.38;;
17953;SDS011;9102;53.548;9.926;2023-04-19T03:56:51;8.25;;;3.47;;
17953;SDS011;9102;53.548;9.926;2023-04-19T03:59:19;9.23;;;4.35;;
17953;SDS011;9102;53.548;9.926;2023-04-19T04:01:46;12.00;;;4.22;;
17953;SDS011;9102;53.548;9.926;2023-04-19T04:04:13;10.32;;;3.70;;
17953;SDS011;9102;53.548;9.926;2023-04-19T04:06:40;9.18;;;4.70;;
17953;SDS011;9102;53.548;9.926;2023-04-19T04:09:07;11.82;;;4.18;;
17953;SDS011;9102;53.548;9.926;2023-04-19T04:11:34;10.90;;;4.68;;
17953;SDS011;9102;53.548;9.926;2023-04-19T04:14:01;8.75;;;3.90;;
17953;SDS011;9102;53.548;9.926;2023-04-19T04:16:30;7.88;;;3.90;;
17953;SDS011;9102;53.548;9.926;2023-04-19T04:18:57;7.57;;;3.90;;
17953;SDS011;9102;53.548;9.926;2023-04-19T04:21:24;6.88;;;3.95;;
17953;SDS011;9102;53.548;9.926;2023-04-19T04:23:51;9.85;;;4.55;;
17953;SDS011;9102;53.548;9.926;2023-04-19T04:26:18;13.40;;;3.85;;
17953;SDS011;9102;53.548;9.926;2023-04-19T04:28:45;7.75;;;3.95;;
17953;SDS011;9102;53.548;9.926;2023-04-19T04:31:12;8.35;;;3.53;;
17953;SDS011;9102;53.548;9.926;2023-04-19T04:33:43;8.25;;;3.95;;
17953;SDS011;9102;53.548;9.926;2023-04-19T04:36:10;11.70;;;4.38;;
17953;SDS011;9102;53.548;9.926;2023-04-19T04:38:37;13.15;;;4.03;;
17953;SDS011;9102;53.548;9.926;2023-04-19T04:41:05;6.45;;;3.55;;
17953;SDS011;9102;53.548;9.926;2023-04-19T04:43:32;9.27;;;4.00;;
17953;SDS011;9102;53.548;9.926;2023-04-19T04:45:59;10.32;;;4.28;;
17953;SDS011;9102;53.548;9.926;2023-04-19T04:48:26;7.05;;;3.78;;
17953;SDS011;9102;53.548;9.926;2023-04-19T04:50:54;11.05;;;3.78;;
17953;SDS011;9102;53.548;9.926;2023-04-19T04:53:21;10.95;;;4.93;;
17953;SDS011;9102;53.548;9.926;2023-04-19T04:55:48;8.07;;;3.53;;
17953;SDS011;9102;53.548;9.926;2023-04-19T04:58:15;8.32;;;3.55;;
17953;SDS011;9102;53.548;9.926;2023-04-19T05:00:42;7.93;;;3.35;;
17953;SDS011;9102;53.548;9.926;2023-04-19T05:03:09;6.63;;;3.35;;
17953;SDS011;9102;53.548;9.926;2023-04-19T05:05:35;14.43;;;3.53;;
17953;SDS011;9102;53.548;9.926;2023-04-19T05:08:04;5.78;;;2.80;;
17953;SDS011;9102;53.548;9.926;2023-04-19T05:10:31;8.85;;;3.05;;
17953;SDS011;9102;53.548;9.926;2023-04-19T05:12:57;7.10;;;3.33;;
17953;SDS011;9102;53.548;9.926;2023-04-19T05:15:25;6.35;;;3.28;;
17953;SDS011;9102;53.548;9.926;2023-04-19T05:17:52;7.07;;;3.17;;
17953;SDS011;9102;53.548;9.926;2023-04-19T05:20:19;5.55;;;2.70;;
17953;SDS011;9102;53.548;9.926;2023-04-19T05:22:46;9.00;;;2.92;;
17953;SDS011;9102;53.548;9.926;2023-04-19T05:25:14;7.30;;;2.80;;
17953;SDS011;9102;53.548;9.926;2023-04-19T05:27:41;5.53;;;2.67;;
17953;SDS011;9102;53.548;9.926;2023-04-19T05:30:08;8.10;;;2.60;;
17953;SDS011;9102;53.548;9.926;2023-04-19T05:32:35;7.40;;;3.03;;
17953;SDS011;9102;53.548;9.926;2023-04-19T05:35:02;4.43;;;2.47;;
17953;SDS011;9102;53.548;9.926;2023-04-19T05:37:29;9.48;;;3.00;;
17953;SDS011;9102;53.548;9.926;2023-04-19T05:39:56;12.73;;;2.90;;
17953;SDS011;9102;53.548;9.926;2023-04-19T05:42:24;9.55;;;3.03;;
17953;SDS011;9102;53.548;9.926;2023-04-19T05:44:51;4.65;;;2.20;;
17953;SDS011;9102;53.548;9.926;2023-04-19T05:47:18;8.60;;;2.75;;
17953;SDS011;9102;53.548;9.926;2023-04-19T05:49:45;3.70;;;2.60;;
17953;SDS011;9102;53.548;9.926;2023-04-19T05:52:12;4.72;;;2.38;;
17953;SDS011;9102;53.548;9.926;2023-04-19T05:54:39;5.93;;;2.42;;
17953;SDS011;9102;53.548;9.926;2023-04-19T05:57:05;8.18;;;2.10;;
17953;SDS011;9102;53.548;9.926;2023-04-19T05:59:34;4.65;;;1.90;;
17953;SDS011;9102;53.548;9.926;2023-04-19T06:02:00;3.42;;;1.88;;
17953;SDS011;9102;53.548;9.926;2023-04-19T06:04:28;5.47;;;2.00;;
17953;SDS011;9102;53.548;9.926;2023-04-19T06:06:55;4.15;;;1.73;;
17953;SDS011;9102;53.548;9.926;2023-04-19T06:09:22;2.53;;;1.33;;
17953;SDS011;9102;53.548;9.926;2023-04-19T06:11:49;2.97;;;1.52;;
17953;SDS011;9102;53.548;9.926;2023-04-19T06:14:18;3.90;;;1.95;;
17953;SDS011;9102;53.548;9.926;2023-04-19T06:16:46;5.82;;;1.63;;
17953;SDS011;9102;53.548;9.926;2023-04-19T06:19:13;6.53;;;1.30;;
17953;SDS011;9102;53.548;9.926;2023-04-19T06:21:40;4.78;;;1.20;;
17953;SDS011;9102;53.548;9.926;2023-04-19T06:24:07;3.50;;;1.50;;
17953;SDS011;9102;53.548;9.926;2023-04-19T06:26:34;3.05;;;1.25;;
17953;SDS011;9102;53.548;9.926;2023-04-19T06:29:01;5.07;;;1.60;;
17953;SDS011;9102;53.548;9.926;2023-04-19T06:31:29;8.02;;;1.70;;
17953;SDS011;9102;53.548;9.926;2023-04-19T06:33:57;5.13;;;1.10;;
17953;SDS011;9102;53.548;9.926;2023-04-19T06:36:24;3.53;;;1.20;;
17953;SDS011;9102;53.548;9.926;2023-04-19T06:38:51;2.13;;;1.17;;
17953;SDS011;9102;53.548;9.926;2023-04-19T06:41:19;2.97;;;1.25;;
17953;SDS011;9102;53.548;9.926;2023-04-19T06:43:47;1.95;;;1.13;;
17953;SDS011;9102;53.548;9.926;2023-04-19T06:46:13;6.93;;;1.50;;
17953;SDS011;9102;53.548;9.926;2023-04-19T06:48:40;4.07;;;1.40;;
17953;SDS011;9102;53.548;9.926;2023-04-19T06:51:09;5.88;;;1.35;;
17953;SDS011;9102;53.548;9.926;2023-04-19T06:53:36;2.85;;;1.45;;
17953;SDS011;9102;53.548;9.926;2023-04-19T06:56:03;3.03;;;1.30;;
17953;SDS011;9102;53.548;9.926;2023-04-19T06:58:31;3.70;;;1.30;;
17953;SDS011;9102;53.548;9.926;2023-04-19T07:00:58;4.13;;;1.10;;
17953;SDS011;9102;53.548;9.926;2023-04-19T07:03:26;1.95;;;1.30;;
17953;SDS011;9102;53.548;9.926;2023-04-19T07:05:53;4.40;;;1.27;;
17953;SDS011;9102;53.548;9.926;2023-04-19T07:08:23;1.95;;;1.15;;
17953;SDS011;9102;53.548;9.926;2023-04-19T07:10:50;2.03;;;1.23;;
17953;SDS011;9102;53.548;9.926;2023-04-19T07:13:18;2.60;;;0.90;;
17953;SDS011;9102;53.548;9.926;2023-04-19T07:15:44;1.42;;;1.00;;
17953;SDS011;9102;53.548;9.926;2023-04-19T07:18:11;2.28;;;0.80;;
17953;SDS011;9102;53.548;9.926;2023-04-19T07:20:40;1.92;;;1.00;;
17953;SDS011;9102;53.548;9.926;2023-04-19T07:23:11;1.63;;;0.85;;
17953;SDS011;9102;53.548;9.926;2023-04-19T07:25:40;1.77;;;0.70;;
17953;SDS011;9102;53.548;9.926;2023-04-19T07:28:06;2.65;;;0.88;;
17953;SDS011;9102;53.548;9.926;2023-04-19T07:30:34;2.20;;;0.70;;
17953;SDS011;9102;53.548;9.926;2023-04-19T07:33:01;2.55;;;0.90;;
17953;SDS011;9102;53.548;9.926;2023-04-19T07:35:29;2.30;;;0.80;;
17953;SDS011;9102;53.548;9.926;2023-04-19T07:37:56;1.75;;;0.75;;
17953;SDS011;9102;53.548;9.926;2023-04-19T07:40:23;4.25;;;0.80;;
17953;SDS011;9102;53.548;9.926;2023-04-19T07:42:51;3.42;;;0.80;;
17953;SDS011;9102;53.548;9.926;2023-04-19T07:45:20;1.55;;;0.88;;
17953;SDS011;9102;53.548;9.926;2023-04-19T07:47:47;2.45;;;1.00;;
17953;SDS011;9102;53.548;9.926;2023-04-19T07:50:14;8.52;;;0.85;;
17953;SDS011;9102;53.548;9.926;2023-04-19T07:52:41;0.77;;;0.60;;
17953;SDS011;9102;53.548;9.926;2023-04-19T07:55:08;4.10;;;0.90;;
17953;SDS011;9102;53.548;9.926;2023-04-19T07:57:35;1.77;;;0.70;;
17953;SDS011;9102;53.548;9.926;2023-04-19T08:00:04;1.17;;;0.80;;
17953;SDS011;9102;53.548;9.926;2023-04-19T08:02:34;1.92;;;0.70;;
17953;SDS011;9102;53.548;9.926;2023-04-19T08:05:01;3.25;;;0.95;;
17953;SDS011;9102;53.548;9.926;2023-04-19T08:07:28;2.00;;;0.82;;
17953;SDS011;9102;53.548;9.926;2023-04-19T08:09:55;3.47;;;0.63;;
17953;SDS011;9102;53.548;9.926;2023-04-19T08:12:21;2.60;;;0.93;;
17953;SDS011;9102;53.548;9.926;2023-04-19T08:14:48;4.15;;;0.68;;
17953;SDS011;9102;53.548;9.926;2023-04-19T08:17:17;2.47;;;0.85;;
17953;SDS011;9102;53.548;9.926;2023-04-19T08:19:45;2.17;;;0.85;;
17953;SDS011;9102;53.548;9.926;2023-04-19T08:22:13;2.45;;;0.93;;
17953;SDS011;9102;53.548;9.926;2023-04-19T08:24:40;1.63;;;0.70;;
17953;SDS011;9102;53.548;9.926;2023-04-19T08:27:07;5.25;;;1.00;;
17953;SDS011;9102;53.548;9.926;2023-04-19T08:29:34;7.00;;;0.95;;
17953;SDS011;9102;53.548;9.926;2023-04-19T08:32:02;2.92;;;0.95;;
17953;SDS011;9102;53.548;9.926;2023-04-19T08:34:33;3.60;;;0.75;;
17953;SDS011;9102;53.548;9.926;2023-04-19T08:37:00;1.77;;;0.73;;
17953;SDS011;9102;53.548;9.926;2023-04-19T08:39:27;2.38;;;1.10;;
17953;SDS011;9102;53.548;9.926;2023-04-19T08:41:54;3.50;;;0.80;;
17953;SDS011;9102;53.548;9.926;2023-04-19T08:44:21;5.03;;;0.90;;
17953;SDS011;9102;53.548;9.926;2023-04-19T08:46:48;2.72;;;1.02;;
17953;SDS011;9102;53.548;9.926;2023-04-19T08:49:16;2.33;;;1.05;;
17953;SDS011;9102;53.548;9.926;2023-04-19T08:51:47;1.15;;;0.80;;
17953;SDS011;9102;53.548;9.926;2023-04-19T08:54:14;2.30;;;0.85;;
17953;SDS011;9102;53.548;9.926;2023-04-19T08:56:41;4.38;;;0.95;;
17953;SDS011;9102;53.548;9.926;2023-04-19T08:59:08;3.85;;;1.00;;
17953;SDS011;9102;53.548;9.926;2023-04-19T09:01:35;2.78;;;0.95;;
17953;SDS011;9102;53.548;9.926;2023-04-19T09:04:02;4.55;;;1.10;;
17953;SDS011;9102;53.548;9.926;2023-04-19T09:06:34;6.25;;;1.33;;
17953;SDS011;9102;53.548;9.926;2023-04-19T09:09:13;1.80;;;0.70;;
17953;SDS011;9102;53.548;9.926;2023-04-19T09:11:41;5.28;;;1.00;;
17953;SDS011;9102;53.548;9.926;2023-04-19T09:14:08;1.75;;;0.90;;
17953;SDS011;9102;53.548;9.926;2023-04-19T09:16:35;2.05;;;0.98;;
17953;SDS011;9102;53.548;9.926;2023-04-19T09:19:04;1.58;;;0.90;;
17953;SDS011;9102;53.548;9.926;2023-04-19T09:21:32;5.85;;;1.65;;
17953;SDS011;9102;53.548;9.926;2023-04-19T09:23:59;3.70;;;1.20;;
17953;SDS011;9102;53.548;9.926;2023-04-19T09:26:28;3.20;;;1.05;;
17953;SDS011;9102;53.548;9.926;2023-04-19T09:28:56;2.13;;;1.42;;
17953;SDS011;9102;53.548;9.926;2023-04-19T09:31:23;2.42;;;1.05;;
17953;SDS011;9102;53.548;9.926;2023-04-19T09:33:52;8.32;;;1.38;;
17953;SDS011;9102;53.548;9.926;2023-04-19T09:36:26;6.47;;;2.30;;
17953;SDS011;9102;53.548;9.926;2023-04-19T09:38:53;2.60;;;1.38;;
17953;SDS011;9102;53.548;9.926;2023-04-19T09:41:20;4.82;;;1.50;;
17953;SDS011;9102;53.548;9.926;2023-04-19T09:43:48;6.35;;;1.50;;
17953;SDS011;9102;53.548;9.926;2023-04-19T09:46:28;6.13;;;1.52;;
17953;SDS011;9102;53.548;9.926;2023-04-19T09:49:05;7.30;;;1.42;;
17953;SDS011;9102;53.548;9.926;2023-04-19T09:51:41;5.22;;;1.50;;
17953;SDS011;9102;53.548;9.926;2023-04-19T09:54:09;2.38;;;1.40;;
17953;SDS011;9102;53.548;9.926;2023-04-19T09:56:37;8.70;;;1.50;;
17953;SDS011;9102;53.548;9.926;2023-04-19T09:59:06;4.25;;;2.08;;
17953;SDS011;9102;53.548;9.926;2023-04-19T10:01:36;6.38;;;1.50;;
17953;SDS011;9102;53.548;9.926;2023-04-19T10:04:05;5.97;;;1.40;;
17953;SDS011;9102;53.548;9.926;2023-04-19T10:06:33;3.67;;;1.50;;
17953;SDS011;9102;53.548;9.926;2023-04-19T10:09:01;6.53;;;1.88;;
17953;SDS011;9102;53.548;9.926;2023-04-19T10:11:30;9.00;;;1.90;;
17953;SDS011;9102;53.548;9.926;2023-04-19T10:14:03;5.30;;;1.80;;
17953;SDS011;9102;53.548;9.926;2023-04-19T10:16:32;4.47;;;1.80;;
17953;SDS011;9102;53.548;9.926;2023-04-19T10:19:00;4.72;;;1.60;;
17953;SDS011;9102;53.548;9.926;2023-04-19T10:21:29;3.20;;;1.75;;
17953;SDS011;9102;53.548;9.926;2023-04-19T10:23:57;4.18;;;1.80;;
17953;SDS011;9102;53.548;9.926;2023-04-19T10:26:24;8.40;;;2.00;;
17953;SDS011;9102;53.548;9.926;2023-04-19T10:28:52;9.63;;;2.13;;
17953;SDS011;9102;53.548;9.926;2023-04-19T10:31:20;9.50;;;2.10;;
17953;SDS011;9102;53.548;9.926;2023-04-19T10:33:49;3.47;;;1.90;;
17953;SDS011;9102;53.548;9.926;2023-04-19T10:36:16;5.70;;;1.80;;
17953;SDS011;9102;53.548;9.926;2023-04-19T10:38:44;4.35;;;1.83;;
17953;SDS011;9102;53.548;9.926;2023-04-19T10:41:12;5.07;;;1.80;;
17953;SDS011;9102;53.548;9.926;2023-04-19T10:43:40;7.00;;;2.03;;
17953;SDS011;9102;53.548;9.926;2023-04-19T10:46:13;3.67;;;1.80;;
17953;SDS011;9102;53.548;9.926;2023-04-19T10:48:52;6.32;;;1.55;;
17953;SDS011;9102;53.548;9.926;2023-04-19T10:51:22;4.90;;;1.60;;
17953;SDS011;9102;53.548;9.926;2023-04-19T10:53:56;5.95;;;1.80;;
17953;SDS011;9102;53.548;9.926;2023-04-19T10:59:23;4.80;;;1.75;;
17953;SDS011;9102;53.548;9.926;2023-04-19T11:01:51;6.05;;;1.73;;
17953;SDS011;9102;53.548;9.926;2023-04-19T11:04:21;9.07;;;2.15;;
17953;SDS011;9102;53.548;9.926;2023-04-19T11:06:58;6.85;;;1.90;;
17953;SDS011;9102;53.548;9.926;2023-04-19T11:09:28;5.30;;;1.95;;
17953;SDS011;9102;53.548;9.926;2023-04-19T11:11:58;7.63;;;1.83;;
17953;SDS011;9102;53.548;9.926;2023-04-19T11:14:28;8.45;;;2.22;;
17953;SDS011;9102;53.548;9.926;2023-04-19T11:16:57;5.97;;;1.83;;
17953;SDS011;9102;53.548;9.926;2023-04-19T11:19:26;7.43;;;1.80;;
17953;SDS011;9102;53.548;9.926;2023-04-19T11:21:53;9.60;;;2.38;;
17953;SDS011;9102;53.548;9.926;2023-04-19T11:24:23;4.72;;;2.00;;
17953;SDS011;9102;53.548;9.926;2023-04-19T11:26:50;5.57;;;1.83;;
17953;SDS011;9102;53.548;9.926;2023-04-19T11:29:18;8.40;;;2.00;;
17953;SDS011;9102;53.548;9.926;2023-04-19T11:31:46;5.88;;;2.10;;
17953;SDS011;9102;53.548;9.926;2023-04-19T11:34:13;4.15;;;1.52;;
17953;SDS011;9102;53.548;9.926;2023-04-19T11:36:48;8.48;;;1.95;;
17953;SDS011;9102;53.548;9.926;2023-04-19T11:39:15;6.10;;;2.20;;
17953;SDS011;9102;53.548;9.926;2023-04-19T11:41:42;9.63;;;2.05;;
17953;SDS011;9102;53.548;9.926;2023-04-19T11:44:14;4.38;;;2.30;;
17953;SDS011;9102;53.548;9.926;2023-04-19T11:46:56;6.20;;;2.00;;
17953;SDS011;9102;53.548;9.926;2023-04-19T11:49:24;7.50;;;1.90;;
17953;SDS011;9102;53.548;9.926;2023-04-19T11:51:54;7.15;;;1.80;;
17953;SDS011;9102;53.548;9.926;2023-04-19T11:54:22;7.55;;;1.75;;
17953;SDS011;9102;53.548;9.926;2023-04-19T11:56:59;6.07;;;1.80;;
17953;SDS011;9102;53.548;9.926;2023-04-19T11:59:28;6.38;;;2.13;;
17953;SDS011;9102;53.548;9.926;2023-04-19T12:02:03;5.28;;;2.00;;
17953;SDS011;9102;53.548;9.926;2023-04-19T12:04:33;7.00;;;1.85;;
17953;SDS011;9102;53.548;9.926;2023-04-19T12:07:02;9.13;;;2.05;;
17953;SDS011;9102;53.548;9.926;2023-04-19T12:09:31;9.10;;;1.77;;
17953;SDS011;9102;53.548;9.926;2023-04-19T12:11:59;7.00;;;2.17;;
17953;SDS011;9102;53.548;9.926;2023-04-19T12:14:27;4.95;;;1.95;;
17953;SDS011;9102;53.548;9.926;2023-04-19T12:17:05;5.22;;;1.80;;
17953;SDS011;9102;53.548;9.926;2023-04-19T12:19:33;5.20;;;1.88;;
17953;SDS011;9102;53.548;9.926;2023-04-19T12:22:10;8.48;;;2.20;;
17953;SDS011;9102;53.548;9.926;2023-04-19T12:24:38;4.38;;;2.00;;
17953;SDS011;9102;53.548;9.926;2023-04-19T12:27:05;8.15;;;1.92;;
17953;SDS011;9102;53.548;9.926;2023-04-19T12:29:33;7.15;;;2.28;;
17953;SDS011;9102;53.548;9.926;2023-04-19T12:32:00;5.97;;;1.75;;
17953;SDS011;9102;53.548;9.926;2023-04-19T12:34:28;4.65;;;1.70;;
17953;SDS011;9102;53.548;9.926;2023-04-19T12:36:55;6.78;;;1.60;;
17953;SDS011;9102;53.548;9.926;2023-04-19T12:39:24;8.15;;;1.65;;
17953;SDS011;9102;53.548;9.926;2023-04-19T12:41:52;7.50;;;2.00;;
17953;SDS011;9102;53.548;9.926;2023-04-19T12:44:19;4.90;;;1.80;;
17953;SDS011;9102;53.548;9.926;2023-04-19T12:46:46;8.75;;;2.10;;
17953;SDS011;9102;53.548;9.926;2023-04-19T12:49:13;3.00;;;1.58;;
17953;SDS011;9102;53.548;9.926;2023-04-19T12:51:40;8.15;;;2.08;;
17953;SDS011;9102;53.548;9.926;2023-04-19T12:54:07;3.55;;;1.35;;
17953;SDS011;9102;53.548;9.926;2023-04-19T12:56:35;3.10;;;1.60;;
17953;SDS011;9102;53.548;9.926;2023-04-19T12:59:02;2.60;;;1.27;;
17953;SDS011;9102;53.548;9.926;2023-04-19T13:01:29;5.63;;;1.63;;
17953;SDS011;9102;53.548;9.926;2023-04-19T13:03:57;5.03;;;1.90;;
17953;SDS011;9102;53.548;9.926;2023-04-19T13:06:24;6.80;;;2.42;;
17953;SDS011;9102;53.548;9.926;2023-04-19T13:08:51;5.53;;;1.85;;
17953;SDS011;9102;53.548;9.926;2023-04-19T13:11:18;4.55;;;1.60;;
17953;SDS011;9102;53.548;9.926;2023-04-19T13:13:48;5.60;;;1.67;;
17953;SDS011;9102;53.548;9.926;2023-04-19T13:16:16;4.00;;;1.85;;
17953;SDS011;9102;53.548;9.926;2023-04-19T13:18:45;8.90;;;2.25;;
17953;SDS011;9102;53.548;9.926;2023-04-19T13:21:12;2.78;;;1.70;;
17953;SDS011;9102;53.548;9.926;2023-04-19T13:23:39;5.60;;;1.90;;
17953;SDS011;9102;53.548;9.926;2023-04-19T13:26:07;5.05;;;1.90;;
17953;SDS011;9102;53.548;9.926;2023-04-19T13:28:34;7.18;;;1.67;;
17953;SDS011;9102;53.548;9.926;2023-04-19T13:31:03;3.08;;;1.50;;
17953;SDS011;9102;53.548;9.926;2023-04-19T13:33:30;8.23;;;1.42;;
17953;SDS011;9102;53.548;9.926;2023-04-19T13:35:56;6.28;;;1.98;;
17953;SDS011;9102;53.548;9.926;2023-04-19T13:38:23;3.92;;;1.60;;
17953;SDS011;9102;53.548;9.926;2023-04-19T13:40:50;6.35;;;1.70;;
17953;SDS011;9102;53.548;9.926;2023-04-19T13:43:17;8.05;;;1.60;;
17953;SDS011;9102;53.548;9.926;2023-04-19T13:45:44;5.28;;;1.73;;
17953;SDS011;9102;53.548;9.926;2023-04-19T13:48:12;5.00;;;2.13;;
17953;SDS011;9102;53.548;9.926;2023-04-19T13:50:39;3.78;;;1.83;;
17953;SDS011;9102;53.548;9.926;2023-04-19T13:53:06;10.77;;;2.13;;
17953;SDS011;9102;53.548;9.926;2023-04-19T13:55:32;5.18;;;1.70;;
17953;SDS011;9102;53.548;9.926;2023-04-19T13:58:00;11.02;;;1.77;;
17953;SDS011;9102;53.548;9.926;2023-04-19T14:00:27;12.63;;;1.73;;
17953;SDS011;9102;53.548;9.926;2023-04-19T14:03:00;3.40;;;1.67;;
17953;SDS011;9102;53.548;9.926;2023-04-19T14:05:31;5.00;;;1.52;;
17953;SDS011;9102;53.548;9.926;2023-04-19T14:08:00;5.03;;;1.63;;
17953;SDS011;9102;53.548;9.926;2023-04-19T14:10:27;4.85;;;1.42;;
17953;SDS011;9102;53.548;9.926;2023-04-19T14:12:55;6.72;;;1.77;;
17953;SDS011;9102;53.548;9.926;2023-04-19T14:15:24;4.20;;;1.67;;
17953;SDS011;9102;53.548;9.926;2023-04-19T14:18:06;4.93;;;1.67;;
17953;SDS011;9102;53.548;9.926;2023-04-19T14:20:44;4.95;;;1.63;;
17953;SDS011;9102;53.548;9.926;2023-04-19T14:23:15;15.65;;;2.28;;
17953;SDS011;9102;53.548;9.926;2023-04-19T14:25:53;7.13;;;1.88;;
17953;SDS011;9102;53.548;9.926;2023-04-19T14:28:48;4.45;;;2.10;;
17953;SDS011;9102;53.548;9.926;2023-04-19T14:31:26;4.35;;;1.90;;
17953;SDS011;9102;53.548;9.926;2023-04-19T14:34:11;9.75;;;1.48;;
17953;SDS011;9102;53.548;9.926;2023-04-19T14:36:39;7.00;;;1.58;;
17953;SDS011;9102;53.548;9.926;2023-04-19T14:39:13;4.25;;;1.73;;
17953;SDS011;9102;53.548;9.926;2023-04-19T14:41:40;7.65;;;1.98;;
17953;SDS011;9102;53.548;9.926;2023-04-19T14:44:13;6.43;;;2.33;;
17953;SDS011;9102;53.548;9.926;2023-04-19T14:46:40;4.45;;;1.42;;
17953;SDS011;9102;53.548;9.926;2023-04-19T14:49:07;3.78;;;1.75;;
17953;SDS011;9102;53.548;9.926;2023-04-19T14:51:36;8.95;;;1.77;;
17953;SDS011;9102;53.548;9.926;2023-04-19T14:54:08;9.73;;;2.17;;
17953;SDS011;9102;53.548;9.926;2023-04-19T14:56:37;8.32;;;1.92;;
17953;SDS011;9102;53.548;9.926;2023-04-19T14:59:13;8.32;;;2.10;;
17953;SDS011;9102;53.548;9.926;2023-04-19T15:01:40;4.05;;;1.58;;
17953;SDS011;9102;53.548;9.926;2023-04-19T15:04:09;4.85;;;1.80;;
17953;SDS011;9102;53.548;9.926;2023-04-19T15:06:35;4.65;;;1.70;;